sensor_id;sensor_type;location;lat;lon;timestamp;temperature;humidity
12847;DHT22;6492;48.128;8.320;2022-08-04T06:33:01;21.40;4.80
12847;DHT22;6492;48.128;8.320;2022-08-04T06:37:13;21.70;4.50
12847;DHT22;6492;48.128;8.320;2022-08-04T06:41:16;22.10;4.20
12847;DHT22;6492;48.128;8.320;2022-08-04T06:45:19;22.30;3.60
12847;DHT22;6492;48.128;8.320;2022-08-04T06:49:56;22.60;3.10
12847;DHT22;6492;48.128;8.320;2022-08-04T06:53:59;23.10;1.40
12847;DHT22;6492;48.128;8.320;2022-08-04T06:58:01;23.60;1.00
12847;DHT22;6492;48.128;8.320;2022-08-04T07:02:14;23.90;1.00
12847;DHT22;6492;48.128;8.320;2022-08-04T07:06:37;24.40;1.00
12847;DHT22;6492;48.128;8.320;2022-08-04T07:10:39;25.30;1.00
12847;DHT22;6492;48.128;8.320;2022-08-04T07:14:46;26.60;1.00
12847;DHT22;6492;48.128;8.320;2022-08-04T07:18:48;28.50;1.00
12847;DHT22;6492;48.128;8.320;2022-08-04T07:23:16;30.20;1.00
12847;DHT22;6492;48.128;8.320;2022-08-04T07:27:35;32.00;1.00
12847;DHT22;6492;48.128;8.320;2022-08-04T07:31:37;34.00;1.00
12847;DHT22;6492;48.128;8.320;2022-08-04T07:35:52;34.80;1.00
12847;DHT22;6492;48.128;8.320;2022-08-04T07:39:55;35.70;1.00
12847;DHT22;6492;48.128;8.320;2022-08-04T07:43:57;36.60;1.00
12847;DHT22;6492;48.128;8.320;2022-08-04T07:48:12;37.40;1.00
12847;DHT22;6492;48.128;8.320;2022-08-04T07:52:15;38.10;1.00
12847;DHT22;6492;48.128;8.320;2022-08-04T07:56:21;38.40;1.00
12847;DHT22;6492;48.128;8.320;2022-08-04T08:00:23;38.40;1.00
12847;DHT22;6492;48.128;8.320;2022-08-04T08:04:27;38.60;1.00
12847;DHT22;6492;48.128;8.320;2022-08-04T08:08:30;38.30;1.00
12847;DHT22;6492;48.128;8.320;2022-08-04T08:12:33;38.20;1.00
12847;DHT22;6492;48.128;8.320;2022-08-04T08:16:36;37.80;1.00
12847;DHT22;6492;48.128;8.320;2022-08-04T08:20:38;37.50;1.00
12847;DHT22;6492;48.128;8.320;2022-08-04T08:24:41;37.60;1.00
12847;DHT22;6492;48.128;8.320;2022-08-04T08:28:45;37.60;1.00
12847;DHT22;6492;48.128;8.320;2022-08-04T08:32:48;37.60;1.00
12847;DHT22;6492;48.128;8.320;2022-08-04T08:36:56;37.30;1.00
12847;DHT22;6492;48.128;8.320;2022-08-04T08:41:19;36.80;1.00
12847;DHT22;6492;48.128;8.320;2022-08-04T08:45:44;36.00;1.00
12847;DHT22;6492;48.128;8.320;2022-08-04T08:50:15;35.90;1.00
12847;DHT22;6492;48.128;8.320;2022-08-04T08:59:15;35.80;1.00
12847;DHT22;6492;48.128;8.320;2022-08-04T09:03:45;35.60;1.00
12847;DHT22;6492;48.128;8.320;2022-08-04T09:08:04;35.50;1.00
12847;DHT22;6492;48.128;8.320;2022-08-04T09:12:14;35.40;1.00
12847;DHT22;6492;48.128;8.320;2022-08-04T09:16:23;34.90;1.00
12847;DHT22;6492;48.128;8.320;2022-08-04T09:20:33;34.60;1.00
12847;DHT22;6492;48.128;8.320;2022-08-04T09:24:46;34.30;1.00
12847;DHT22;6492;48.128;8.320;2022-08-04T09:29:02;34.30;1.00
12847;DHT22;6492;48.128;8.320;2022-08-04T09:33:17;33.90;1.00
12847;DHT22;6492;48.128;8.320;2022-08-04T09:37:32;33.70;1.00
12847;DHT22;6492;48.128;8.320;2022-08-04T09:41:44;33.70;1.00
12847;DHT22;6492;48.128;8.320;2022-08-04T09:45:56;33.60;1.00
12847;DHT22;6492;48.128;8.320;2022-08-04T09:50:06;33.30;1.00
12847;DHT22;6492;48.128;8.320;2022-08-04T09:54:20;33.70;1.00
12847;DHT22;6492;48.128;8.320;2022-08-04T09:58:39;34.10;1.00
12847;DHT22;6492;48.128;8.320;2022-08-04T10:03:00;34.20;1.00
12847;DHT22;6492;48.128;8.320;2022-08-04T10:07:14;34.30;1.00
12847;DHT22;6492;48.128;8.320;2022-08-04T10:11:23;34.40;1.00
12847;DHT22;6492;48.128;8.320;2022-08-04T10:15:52;34.40;1.00
12847;DHT22;6492;48.128;8.320;2022-08-04T10:20:05;34.60;1.00
12847;DHT22;6492;48.128;8.320;2022-08-04T10:24:18;34.50;1.00
12847;DHT22;6492;48.128;8.320;2022-08-04T10:28:24;34.30;1.00
12847;DHT22;6492;48.128;8.320;2022-08-04T10:32:31;34.00;1.00
12847;DHT22;6492;48.128;8.320;2022-08-04T10:36:40;33.70;1.00
12847;DHT22;6492;48.128;8.320;2022-08-04T10:41:09;33.60;1.00
12847;DHT22;6492;48.128;8.320;2022-08-04T10:45:17;33.90;1.00
12847;DHT22;6492;48.128;8.320;2022-08-04T10:49:23;34.70;1.00
12847;DHT22;6492;48.128;8.320;2022-08-04T10:53:31;34.70;1.00
12847;DHT22;6492;48.128;8.320;2022-08-04T10:57:45;34.40;1.00
12847;DHT22;6492;48.128;8.320;2022-08-04T11:01:52;34.40;1.00
12847;DHT22;6492;48.128;8.320;2022-08-04T11:05:57;34.60;1.00
12847;DHT22;6492;48.128;8.320;2022-08-04T11:10:02;35.40;1.00
12847;DHT22;6492;48.128;8.320;2022-08-04T11:14:14;36.20;1.00
12847;DHT22;6492;48.128;8.320;2022-08-04T11:18:24;36.10;1.00
12847;DHT22;6492;48.128;8.320;2022-08-04T11:22:28;35.90;1.00
12847;DHT22;6492;48.128;8.320;2022-08-04T11:26:37;35.60;1.00
12847;DHT22;6492;48.128;8.320;2022-08-04T11:30:55;35.50;1.00
12847;DHT22;6492;48.128;8.320;2022-08-04T11:35:23;35.50;1.00
12847;DHT22;6492;48.128;8.320;2022-08-04T11:39:29;36.20;1.00
12847;DHT22;6492;48.128;8.320;2022-08-04T11:43:53;37.10;1.00
12847;DHT22;6492;48.128;8.320;2022-08-04T11:47:59;37.30;1.00
12847;DHT22;6492;48.128;8.320;2022-08-04T11:52:04;37.20;1.00
12847;DHT22;6492;48.128;8.320;2022-08-04T11:56:11;37.20;1.00
12847;DHT22;6492;48.128;8.320;2022-08-04T12:00:31;36.90;1.00
12847;DHT22;6492;48.128;8.320;2022-08-04T12:04:44;36.70;1.00
12847;DHT22;6492;48.128;8.320;2022-08-04T12:09:03;36.90;1.00
12847;DHT22;6492;48.128;8.320;2022-08-04T12:13:33;36.60;1.00
12847;DHT22;6492;48.128;8.320;2022-08-04T12:17:56;36.70;1.00
12847;DHT22;6492;48.128;8.320;2022-08-04T12:22:03;36.80;1.00
12847;DHT22;6492;48.128;8.320;2022-08-04T12:26:09;36.70;1.00
12847;DHT22;6492;48.128;8.320;2022-08-04T12:30:41;36.60;1.00
12847;DHT22;6492;48.128;8.320;2022-08-04T12:34:51;36.60;1.00
12847;DHT22;6492;48.128;8.320;2022-08-04T12:39:15;36.70;1.00
12847;DHT22;6492;48.128;8.320;2022-08-04T12:43:29;37.20;1.00
12847;DHT22;6492;48.128;8.320;2022-08-04T12:47:34;37.20;1.00
12847;DHT22;6492;48.128;8.320;2022-08-04T12:51:55;37.20;1.00
12847;DHT22;6492;48.128;8.320;2022-08-04T12:55:58;36.80;1.00
12847;DHT22;6492;48.128;8.320;2022-08-04T13:00:04;36.80;1.00
12847;DHT22;6492;48.128;8.320;2022-08-04T13:04:12;36.70;1.00
12847;DHT22;6492;48.128;8.320;2022-08-04T13:08:19;36.80;1.00
12847;DHT22;6492;48.128;8.320;2022-08-04T13:12:24;36.70;1.00
12847;DHT22;6492;48.128;8.320;2022-08-04T13:16:31;37.20;1.00
12847;DHT22;6492;48.128;8.320;2022-08-04T13:20:36;37.60;1.00
12847;DHT22;6492;48.128;8.320;2022-08-04T13:24:54;37.40;1.00
12847;DHT22;6492;48.128;8.320;2022-08-04T13:29:02;37.60;1.00
12847;DHT22;6492;48.128;8.320;2022-08-04T13:33:19;37.70;1.00
12847;DHT22;6492;48.128;8.320;2022-08-04T13:37:24;37.60;1.00
12847;DHT22;6492;48.128;8.320;2022-08-04T13:41:27;37.20;1.00
12847;DHT22;6492;48.128;8.320;2022-08-04T13:45:40;37.40;1.00
12847;DHT22;6492;48.128;8.320;2022-08-04T13:50:04;37.90;1.00
12847;DHT22;6492;48.128;8.320;2022-08-04T13:54:16;38.20;1.00
12847;DHT22;6492;48.128;8.320;2022-08-04T13:58:23;38.50;1.00
12847;DHT22;6492;48.128;8.320;2022-08-04T14:02:39;38.30;1.00
12847;DHT22;6492;48.128;8.320;2022-08-04T14:07:01;38.60;1.00
12847;DHT22;6492;48.128;8.320;2022-08-04T14:11:33;38.50;1.00
12847;DHT22;6492;48.128;8.320;2022-08-04T14:15:41;38.30;1.00
12847;DHT22;6492;48.128;8.320;2022-08-04T14:19:53;38.20;1.00
12847;DHT22;6492;48.128;8.320;2022-08-04T14:23:56;38.00;1.00
12847;DHT22;6492;48.128;8.320;2022-08-04T14:28:29;38.00;1.00
12847;DHT22;6492;48.128;8.320;2022-08-04T14:32:32;37.80;1.00
12847;DHT22;6492;48.128;8.320;2022-08-04T14:36:40;37.80;1.00
12847;DHT22;6492;48.128;8.320;2022-08-04T14:41:04;37.90;1.00
12847;DHT22;6492;48.128;8.320;2022-08-04T14:45:07;37.70;1.00
12847;DHT22;6492;48.128;8.320;2022-08-04T14:49:11;37.80;1.00
12847;DHT22;6492;48.128;8.320;2022-08-04T14:53:17;37.90;1.00
12847;DHT22;6492;48.128;8.320;2022-08-04T14:57:28;37.60;1.00
12847;DHT22;6492;48.128;8.320;2022-08-04T15:01:30;37.60;1.00
12847;DHT22;6492;48.128;8.320;2022-08-04T15:05:32;37.70;1.00
12847;DHT22;6492;48.128;8.320;2022-08-04T15:09:35;37.30;1.00
12847;DHT22;6492;48.128;8.320;2022-08-04T15:13:38;37.20;1.00
12847;DHT22;6492;48.128;8.320;2022-08-04T15:17:41;37.20;1.00
12847;DHT22;6492;48.128;8.320;2022-08-04T15:21:45;37.50;1.00
12847;DHT22;6492;48.128;8.320;2022-08-04T15:25:50;37.40;1.00
12847;DHT22;6492;48.128;8.320;2022-08-04T15:29:56;37.30;1.00
12847;DHT22;6492;48.128;8.320;2022-08-04T15:34:19;37.30;1.00
12847;DHT22;6492;48.128;8.320;2022-08-04T15:38:28;37.20;1.00
12847;DHT22;6492;48.128;8.320;2022-08-04T15:42:35;37.10;1.00
12847;DHT22;6492;48.128;8.320;2022-08-04T15:47:10;36.90;1.00
12847;DHT22;6492;48.128;8.320;2022-08-04T15:51:12;36.80;1.00
12847;DHT22;6492;48.128;8.320;2022-08-04T15:55:32;37.00;1.00
12847;DHT22;6492;48.128;8.320;2022-08-04T16:00:08;37.10;1.00
12847;DHT22;6492;48.128;8.320;2022-08-04T16:04:22;37.10;1.00
12847;DHT22;6492;48.128;8.320;2022-08-04T16:08:24;37.40;1.00
12847;DHT22;6492;48.128;8.320;2022-08-04T16:12:56;37.50;1.00
12847;DHT22;6492;48.128;8.320;2022-08-04T16:17:16;37.60;1.00
12847;DHT22;6492;48.128;8.320;2022-08-04T16:21:23;37.20;1.00
12847;DHT22;6492;48.128;8.320;2022-08-04T16:25:40;37.10;1.00
12847;DHT22;6492;48.128;8.320;2022-08-04T16:29:55;37.10;1.00
12847;DHT22;6492;48.128;8.320;2022-08-04T16:34:03;37.10;1.00
12847;DHT22;6492;48.128;8.320;2022-08-04T16:38:13;37.10;1.00
12847;DHT22;6492;48.128;8.320;2022-08-04T16:42:30;37.00;1.00
12847;DHT22;6492;48.128;8.320;2022-08-04T16:46:39;36.90;1.00
12847;DHT22;6492;48.128;8.320;2022-08-04T16:50:47;36.70;1.00
12847;DHT22;6492;48.128;8.320;2022-08-04T16:54:51;36.60;1.00
12847;DHT22;6492;48.128;8.320;2022-08-04T16:58:53;36.40;1.00
12847;DHT22;6492;48.128;8.320;2022-08-04T17:03:05;36.20;1.00
12847;DHT22;6492;48.128;8.320;2022-08-04T17:07:27;36.10;1.00
12847;DHT22;6492;48.128;8.320;2022-08-04T17:11:38;35.80;1.00
12847;DHT22;6492;48.128;8.320;2022-08-04T17:15:46;35.50;1.00
12847;DHT22;6492;48.128;8.320;2022-08-04T17:19:51;35.40;1.00
12847;DHT22;6492;48.128;8.320;2022-08-04T17:23:54;35.30;1.00
12847;DHT22;6492;48.128;8.320;2022-08-04T17:28:02;34.90;1.00
12847;DHT22;6492;48.128;8.320;2022-08-04T17:32:04;34.50;1.00
12847;DHT22;6492;48.128;8.320;2022-08-04T17:36:07;33.80;1.00
12847;DHT22;6492;48.128;8.320;2022-08-04T17:40:13;33.20;1.00
12847;DHT22;6492;48.128;8.320;2022-08-04T17:44:34;32.90;1.00
12847;DHT22;6492;48.128;8.320;2022-08-04T17:48:40;32.50;1.00
12847;DHT22;6492;48.128;8.320;2022-08-04T17:52:41;32.10;1.00
12847;DHT22;6492;48.128;8.320;2022-08-04T17:57:00;31.90;1.00
12847;DHT22;6492;48.128;8.320;2022-08-04T18:01:04;31.90;1.00
12847;DHT22;6492;48.128;8.320;2022-08-04T18:05:06;31.90;1.00
12847;DHT22;6492;48.128;8.320;2022-08-04T18:09:09;31.90;1.00
12847;DHT22;6492;48.128;8.320;2022-08-04T18:13:11;31.90;1.00
12847;DHT22;6492;48.128;8.320;2022-08-04T18:17:30;31.80;1.00
12847;DHT22;6492;48.128;8.320;2022-08-04T18:22:04;31.50;1.00
12847;DHT22;6492;48.128;8.320;2022-08-04T18:26:06;31.00;1.00
12847;DHT22;6492;48.128;8.320;2022-08-04T18:30:20;30.50;1.00
12847;DHT22;6492;48.128;8.320;2022-08-04T18:34:23;30.00;1.00
12847;DHT22;6492;48.128;8.320;2022-08-04T18:38:25;29.40;1.00
12847;DHT22;6492;48.128;8.320;2022-08-04T18:42:27;29.00;1.00
12847;DHT22;6492;48.128;8.320;2022-08-04T18:46:29;28.60;1.00
12847;DHT22;6492;48.128;8.320;2022-08-04T18:50:33;28.20;1.00
12847;DHT22;6492;48.128;8.320;2022-08-04T18:54:35;27.80;1.00
12847;DHT22;6492;48.128;8.320;2022-08-04T18:58:38;27.40;1.00
12847;DHT22;6492;48.128;8.320;2022-08-04T19:02:41;26.90;1.00
12847;DHT22;6492;48.128;8.320;2022-08-04T19:06:45;26.70;1.00
12847;DHT22;6492;48.128;8.320;2022-08-04T19:10:47;26.30;1.00
12847;DHT22;6492;48.128;8.320;2022-08-04T19:14:53;26.00;1.00
12847;DHT22;6492;48.128;8.320;2022-08-04T19:18:55;25.60;1.00
12847;DHT22;6492;48.128;8.320;2022-08-04T19:22:58;25.40;1.00
12847;DHT22;6492;48.128;8.320;2022-08-04T19:27:02;25.10;1.00
12847;DHT22;6492;48.128;8.320;2022-08-04T19:31:05;24.80;1.00
12847;DHT22;6492;48.128;8.320;2022-08-04T19:35:09;24.50;1.00
12847;DHT22;6492;48.128;8.320;2022-08-04T19:39:13;24.30;1.00
12847;DHT22;6492;48.128;8.320;2022-08-04T19:43:27;24.10;1.00
12847;DHT22;6492;48.128;8.320;2022-08-04T19:47:29;23.90;1.00
12847;DHT22;6492;48.128;8.320;2022-08-04T19:51:31;23.70;1.00
12847;DHT22;6492;48.128;8.320;2022-08-04T19:55:39;23.60;1.00
12847;DHT22;6492;48.128;8.320;2022-08-04T19:59:41;23.50;1.00
12847;DHT22;6492;48.128;8.320;2022-08-04T20:03:54;23.50;1.00
12847;DHT22;6492;48.128;8.320;2022-08-04T20:07:57;23.50;1.00
12847;DHT22;6492;48.128;8.320;2022-08-04T20:12:00;23.40;1.00
12847;DHT22;6492;48.128;8.320;2022-08-04T20:16:02;23.30;1.00
12847;DHT22;6492;48.128;8.320;2022-08-04T20:20:11;23.30;1.00
12847;DHT22;6492;48.128;8.320;2022-08-04T20:24:16;23.30;1.00
12847;DHT22;6492;48.128;8.320;2022-08-04T20:28:20;23.20;1.00
12847;DHT22;6492;48.128;8.320;2022-08-04T20:32:24;23.10;1.00
12847;DHT22;6492;48.128;8.320;2022-08-04T20:36:26;23.10;1.00
12847;DHT22;6492;48.128;8.320;2022-08-04T20:40:39;23.10;1.00
12847;DHT22;6492;48.128;8.320;2022-08-04T20:44:42;23.10;1.00
12847;DHT22;6492;48.128;8.320;2022-08-04T20:48:44;23.10;1.00
12847;DHT22;6492;48.128;8.320;2022-08-04T20:52:46;23.30;1.00
12847;DHT22;6492;48.128;8.320;2022-08-04T20:56:47;23.30;1.00
12847;DHT22;6492;48.128;8.320;2022-08-04T21:00:51;23.40;1.00
12847;DHT22;6492;48.128;8.320;2022-08-04T21:04:54;23.40;1.00
12847;DHT22;6492;48.128;8.320;2022-08-04T21:08:56;23.60;1.00
12847;DHT22;6492;48.128;8.320;2022-08-04T21:12:59;23.70;1.00
12847;DHT22;6492;48.128;8.320;2022-08-04T21:17:02;23.80;1.00
12847;DHT22;6492;48.128;8.320;2022-08-04T21:21:19;23.90;1.00
12847;DHT22;6492;48.128;8.320;2022-08-04T21:25:21;23.90;1.00
12847;DHT22;6492;48.128;8.320;2022-08-04T21:29:51;23.90;1.00
12847;DHT22;6492;48.128;8.320;2022-08-04T21:33:55;23.90;1.00
12847;DHT22;6492;48.128;8.320;2022-08-04T21:38:03;24.00;1.00
12847;DHT22;6492;48.128;8.320;2022-08-04T21:42:19;24.00;1.00
12847;DHT22;6492;48.128;8.320;2022-08-04T21:46:21;23.90;1.00
12847;DHT22;6492;48.128;8.320;2022-08-04T21:50:25;23.80;1.00
12847;DHT22;6492;48.128;8.320;2022-08-04T21:54:26;23.70;1.00
12847;DHT22;6492;48.128;8.320;2022-08-04T21:58:28;23.60;1.00
12847;DHT22;6492;48.128;8.320;2022-08-04T22:02:30;23.50;1.00
12847;DHT22;6492;48.128;8.320;2022-08-04T22:06:33;23.40;1.00
12847;DHT22;6492;48.128;8.320;2022-08-04T22:10:35;23.30;1.00
12847;DHT22;6492;48.128;8.320;2022-08-04T22:14:48;23.10;1.00
12847;DHT22;6492;48.128;8.320;2022-08-04T22:18:50;22.90;1.00
12847;DHT22;6492;48.128;8.320;2022-08-04T22:22:54;22.80;1.00
12847;DHT22;6492;48.128;8.320;2022-08-04T22:26:55;22.80;1.00
12847;DHT22;6492;48.128;8.320;2022-08-04T22:30:57;22.70;1.00
12847;DHT22;6492;48.128;8.320;2022-08-04T22:34:59;22.60;1.00
12847;DHT22;6492;48.128;8.320;2022-08-04T22:39:02;22.40;1.00
12847;DHT22;6492;48.128;8.320;2022-08-04T22:43:06;22.30;1.00
12847;DHT22;6492;48.128;8.320;2022-08-04T22:47:09;22.30;1.00
12847;DHT22;6492;48.128;8.320;2022-08-04T22:51:11;22.20;1.00
12847;DHT22;6492;48.128;8.320;2022-08-04T22:55:14;22.10;1.00
12847;DHT22;6492;48.128;8.320;2022-08-04T22:59:16;22.00;1.00
12847;DHT22;6492;48.128;8.320;2022-08-04T23:03:18;21.90;1.00
12847;DHT22;6492;48.128;8.320;2022-08-04T23:07:20;21.80;1.00
12847;DHT22;6492;48.128;8.320;2022-08-04T23:11:23;21.70;1.00
12847;DHT22;6492;48.128;8.320;2022-08-04T23:15:25;21.50;1.00
12847;DHT22;6492;48.128;8.320;2022-08-04T23:19:27;21.40;1.00
12847;DHT22;6492;48.128;8.320;2022-08-04T23:23:29;21.30;1.00
12847;DHT22;6492;48.128;8.320;2022-08-04T23:27:35;21.50;1.00
12847;DHT22;6492;48.128;8.320;2022-08-04T23:31:37;21.70;1.00
12847;DHT22;6492;48.128;8.320;2022-08-04T23:35:52;21.80;1.00
12847;DHT22;6492;48.128;8.320;2022-08-04T23:39:54;21.80;1.00
12847;DHT22;6492;48.128;8.320;2022-08-04T23:43:57;21.70;1.00
12847;DHT22;6492;48.128;8.320;2022-08-04T23:47:59;21.60;1.00
12847;DHT22;6492;48.128;8.320;2022-08-04T23:52:01;21.40;1.00
12847;DHT22;6492;48.128;8.320;2022-08-04T23:56:05;21.40;1.00
